createdAt,value
2022-11-09T00:02:43.737Z,74.71
2022-11-09T00:07:46.070Z,74.78
2022-11-09T00:12:48.033Z,75.82
2022-11-09T00:17:51.033Z,75.84
2022-11-09T00:22:53.015Z,76.14
2022-11-09T00:27:54.728Z,76.45
2022-11-09T00:32:58.219Z,76.76
2022-11-09T00:38:00.329Z,76.52
2022-11-09T00:43:02.638Z,76.51
2022-11-09T00:48:06.550Z,76.55
2022-11-09T00:53:08.503Z,76.21
2022-11-09T00:58:10.732Z,76.13
2022-11-09T01:03:14.241Z,76.54
2022-11-09T01:08:16.657Z,76.87
2022-11-09T01:13:19.878Z,77.53
2022-11-09T01:18:23.606Z,77.97
2022-11-09T01:23:25.459Z,78.00
2022-11-09T01:28:28.216Z,78.88
2022-11-09T01:33:32.398Z,79.14
2022-11-09T01:38:36.032Z,79.28
2022-11-09T01:43:38.031Z,78.84
2022-11-09T01:48:46.044Z,78.93
2022-11-09T01:53:51.796Z,78.41
2022-11-09T01:58:58.233Z,78.39
2022-11-09T02:04:06.270Z,78.74
2022-11-09T02:09:25.725Z,79.03
2022-11-09T02:14:29.813Z,78.96
2022-11-09T02:19:33.457Z,79.08
2022-11-09T02:24:37.073Z,79.25
2022-11-09T02:29:41.506Z,79.29
2022-11-09T02:34:43.356Z,79.03
2022-11-09T02:39:49.592Z,79.03
2022-11-09T02:44:55.790Z,79.16
2022-11-09T02:49:57.970Z,79.87
2022-11-09T02:55:01.530Z,80.13
2022-11-09T03:00:04.722Z,79.44
2022-11-09T03:05:08.022Z,78.49
2022-11-09T03:10:11.514Z,77.99
2022-11-09T03:15:13.580Z,76.94
2022-11-09T03:20:15.784Z,75.77
2022-11-09T03:25:19.164Z,75.40
2022-11-09T03:30:21.228Z,75.03
2022-11-09T03:35:23.472Z,75.13
2022-11-09T03:40:27.007Z,75.12
2022-11-09T03:45:29.176Z,74.63
2022-11-09T03:50:34.055Z,75.69
2022-11-09T03:55:38.110Z,76.57
2022-11-09T04:00:40.404Z,77.88
2022-11-09T04:05:42.392Z,78.89
2022-11-09T04:10:45.946Z,78.94
2022-11-09T04:15:47.912Z,80.08
2022-11-09T04:20:49.972Z,80.51
2022-11-09T04:25:53.341Z,81.23
2022-11-09T04:30:55.032Z,81.65
2022-11-09T04:36:02.342Z,81.23
2022-11-09T04:41:05.644Z,81.09
2022-11-09T04:46:07.351Z,82.24
2022-11-09T04:51:10.787Z,84.12
2022-11-09T04:56:14.592Z,85.33
2022-11-09T05:01:16.504Z,86.87
2022-11-09T05:06:18.148Z,87.04
2022-11-09T05:11:22.008Z,87.79
2022-11-09T05:16:24.031Z,87.26
2022-11-09T05:21:26.078Z,87.76
2022-11-09T05:26:32.290Z,88.34
2022-11-09T05:31:34.805Z,87.41
2022-11-09T05:36:36.863Z,86.00
2022-11-09T05:41:40.347Z,85.66
2022-11-09T05:46:41.932Z,84.32
2022-11-09T05:51:43.913Z,83.32
2022-11-09T05:56:47.167Z,83.15
2022-11-09T06:01:49.537Z,82.91
2022-11-09T06:06:51.612Z,82.06
2022-11-09T06:11:54.703Z,81.68
2022-11-09T06:16:56.757Z,81.90
2022-11-09T06:21:58.454Z,81.64
2022-11-09T06:27:01.472Z,81.37
2022-11-09T06:32:03.884Z,81.58
2022-11-09T06:37:05.600Z,83.08
2022-11-09T06:42:09.259Z,84.05
2022-11-09T06:47:11.619Z,86.10
2022-11-09T06:52:13.881Z,87.37
2022-11-09T06:57:17.144Z,88.99
2022-11-09T07:02:19.375Z,90.10
2022-11-09T07:07:27.470Z,91.78
2022-11-09T07:12:31.051Z,92.65
2022-11-09T07:17:34.454Z,93.75
2022-11-09T07:22:36.481Z,94.25
2022-11-09T07:27:42.802Z,95.46
2022-11-09T07:38:07.636Z,96.07
2022-11-09T07:43:12.945Z,96.08
2022-11-09T07:48:15.405Z,96.22
2022-11-09T07:53:17.878Z,96.31
2022-11-09T07:58:21.305Z,96.70
2022-11-09T08:03:24.139Z,96.67
2022-11-09T08:08:27.222Z,96.75
2022-11-09T08:13:30.736Z,96.90
2022-11-09T08:18:32.770Z,96.80
2022-11-09T08:23:34.763Z,96.32
2022-11-09T08:28:38.506Z,96.65
2022-11-09T08:33:41.919Z,96.66
2022-11-09T08:38:45.502Z,95.89
2022-11-09T08:43:49.072Z,96.14
2022-11-09T08:48:51.261Z,96.08
2022-11-09T08:53:53.237Z,96.05
2022-11-09T08:58:56.998Z,95.75
2022-11-09T09:03:59.169Z,94.84
2022-11-09T09:09:00.872Z,93.91
2022-11-09T09:14:04.936Z,92.93
2022-11-09T09:19:06.536Z,91.70
2022-11-09T09:24:08.647Z,90.33
2022-11-09T09:29:11.611Z,89.42
2022-11-09T09:34:13.284Z,88.15
2022-11-09T09:39:15.916Z,88.53
2022-11-09T09:44:24.254Z,88.54
2022-11-09T09:49:28.910Z,88.81
2022-11-09T09:54:35.880Z,86.40
2022-11-09T09:59:42.276Z,86.97
2022-11-09T10:04:44.781Z,86.54
2022-11-09T10:10:02.636Z,86.69
2022-11-09T10:15:17.992Z,87.62
2022-11-09T10:20:39.063Z,88.13
2022-11-09T10:31:15.497Z,73.83
2022-11-09T10:36:24.817Z,61.15
2022-11-09T10:41:30.028Z,54.63
2022-11-09T10:47:05.090Z,57.94
2022-11-09T10:52:30.573Z,54.39
2022-11-09T10:57:32.598Z,49.54
2022-11-09T11:02:44.927Z,52.54
2022-11-09T11:07:47.372Z,56.18
2022-11-09T11:13:13.100Z,59.92
2022-11-09T11:18:20.629Z,66.74
2022-11-09T11:23:25.191Z,72.92
2022-11-09T11:28:35.061Z,77.18
2022-11-09T11:33:38.548Z,77.55
2022-11-09T11:38:46.511Z,76.26
2022-11-09T11:43:57.234Z,76.62
2022-11-09T11:49:23.992Z,76.81
2022-11-09T11:54:41.126Z,75.49
2022-11-09T12:00:02.751Z,76.56
2022-11-09T12:05:31.545Z,76.69
2022-11-09T12:10:46.728Z,73.36
2022-11-09T12:16:07.967Z,73.64
2022-11-09T12:21:17.945Z,73.96
2022-11-09T12:26:27.344Z,74.85
2022-11-09T12:31:38.760Z,75.77
2022-11-09T12:36:47.337Z,76.29
2022-11-09T12:41:51.310Z,76.48
2022-11-09T12:47:02.216Z,75.03
2022-11-09T12:52:08.178Z,74.13
2022-11-09T12:57:14.001Z,74.54
2022-11-09T13:02:24.425Z,74.92
2022-11-09T13:07:47.304Z,74.91
2022-11-09T13:12:49.669Z,75.90
2022-11-09T13:17:59.144Z,75.00
2022-11-09T13:23:04.261Z,74.96
2022-11-09T13:28:44.016Z,75.51
2022-11-09T13:33:46.060Z,75.79
2022-11-09T13:39:28.317Z,76.19
2022-11-09T13:44:34.293Z,76.41
2022-11-09T13:49:44.292Z,76.47
2022-11-09T13:54:53.941Z,77.86
2022-11-09T14:00:00.341Z,78.53
2022-11-09T14:05:02.443Z,79.53
2022-11-09T14:10:17.260Z,79.67
2022-11-09T14:15:31.218Z,79.78
2022-11-09T14:20:41.132Z,80.62
2022-11-09T14:25:45.135Z,80.96
2022-11-09T14:30:47.083Z,81.72
2022-11-09T14:35:50.662Z,82.57
2022-11-09T14:40:59.191Z,83.73
2022-11-09T14:46:04.012Z,84.23
2022-11-09T14:51:08.530Z,85.06
2022-11-09T14:56:16.132Z,85.95
2022-11-09T15:01:22.402Z,86.70
2022-11-09T15:06:24.942Z,87.61
2022-11-09T15:11:34.613Z,88.47
2022-11-09T15:16:37.066Z,88.99
2022-11-09T15:21:39.102Z,89.43
2022-11-09T15:26:44.888Z,89.98
2022-11-09T15:31:58.002Z,90.48
2022-11-09T15:37:00.489Z,91.34
2022-11-09T15:42:04.779Z,92.42
2022-11-09T15:47:21.400Z,92.96
2022-11-09T15:52:23.640Z,93.64
2022-11-09T15:57:27.364Z,93.92
2022-11-09T16:02:29.441Z,94.55
2022-11-09T16:07:31.560Z,95.03
2022-11-09T16:12:37.254Z,95.27
2022-11-09T16:17:39.509Z,95.60
2022-11-09T16:22:41.730Z,95.91
2022-11-09T16:27:50.564Z,97.14
2022-11-09T16:32:54.959Z,97.21
2022-11-09T16:37:57.460Z,97.07
2022-11-09T16:43:01.751Z,96.52
2022-11-09T16:48:10.684Z,96.42
2022-11-09T16:53:13.902Z,96.57
2022-11-09T16:58:17.633Z,96.42
2022-11-09T17:03:20.276Z,96.73
2022-11-09T17:08:22.875Z,97.02
2022-11-09T17:13:26.881Z,97.53
2022-11-09T17:18:29.333Z,97.82
2022-11-09T17:23:31.590Z,97.95
2022-11-09T17:28:41.580Z,97.99
2022-11-09T17:33:45.268Z,97.21
2022-11-09T17:38:47.743Z,97.22
2022-11-09T17:43:51.227Z,97.73
2022-11-09T17:48:53.315Z,97.78
2022-11-09T17:53:55.414Z,98.21
2022-11-09T17:58:58.996Z,98.05
2022-11-09T18:04:06.249Z,98.15
2022-11-09T18:09:39.800Z,98.07
2022-11-09T18:14:33.273Z,98.89
2022-11-09T18:19:35.284Z,96.49
2022-11-09T18:24:37.020Z,94.12
2022-11-09T18:29:40.474Z,92.21
2022-11-09T18:34:42.204Z,90.99
2022-11-09T18:39:44.653Z,89.97
2022-11-09T18:44:47.949Z,89.81
2022-11-09T18:49:49.826Z,88.88
2022-11-09T18:54:54.173Z,91.93
2022-11-09T18:59:58.981Z,90.45
2022-11-09T19:05:00.872Z,90.42
2022-11-09T19:10:03.256Z,90.14
2022-11-09T19:15:07.430Z,90.99
2022-11-09T19:20:10.428Z,91.21
2022-11-09T19:25:12.175Z,90.85
2022-11-09T19:30:16.591Z,92.03
2022-11-09T19:35:24.029Z,92.75
2022-11-09T19:40:28.165Z,93.24
2022-11-09T19:45:31.479Z,94.15
2022-11-09T19:50:33.651Z,94.61
2022-11-09T19:55:35.719Z,95.16
2022-11-09T20:00:39.383Z,94.45
2022-11-09T20:05:41.513Z,94.73
2022-11-09T20:10:44.075Z,93.51
2022-11-09T20:15:48.588Z,92.76
2022-11-09T20:20:54.036Z,92.70
2022-11-09T20:26:03.653Z,93.06
2022-11-09T20:31:10.779Z,93.44
2022-11-09T20:36:13.389Z,93.73
2022-11-09T20:41:15.894Z,93.93
2022-11-09T20:46:22.036Z,94.65
2022-11-09T20:51:24.686Z,94.83
2022-11-09T20:56:26.960Z,95.39
2022-11-09T21:01:34.647Z,94.96
2022-11-09T21:06:38.892Z,95.25
2022-11-09T21:11:42.967Z,95.90
2022-11-09T21:16:50.321Z,96.16
2022-11-09T21:21:52.614Z,95.85
2022-11-09T21:26:54.908Z,95.84
2022-11-09T21:31:58.519Z,96.06
2022-11-09T21:37:00.904Z,95.80
2022-11-09T21:42:03.681Z,96.49
2022-11-09T21:47:07.504Z,96.42
2022-11-09T21:52:09.143Z,96.47
2022-11-09T21:57:11.168Z,96.62
2022-11-09T22:02:14.698Z,95.79
2022-11-09T22:07:16.937Z,94.79
2022-11-09T22:12:18.958Z,93.92
2022-11-09T22:17:22.569Z,93.46
2022-11-09T22:22:26.801Z,92.29
2022-11-09T22:27:30.237Z,91.85
2022-11-09T22:32:33.752Z,91.83
2022-11-09T22:37:35.826Z,91.92
2022-11-09T22:42:37.896Z,92.08
2022-11-09T22:47:41.407Z,91.60
2022-11-09T22:52:43.645Z,91.35
2022-11-09T22:57:47.476Z,91.47
2022-11-09T23:02:50.929Z,90.68
2022-11-09T23:07:55.275Z,90.66
2022-11-09T23:12:58.726Z,90.33
2022-11-09T23:18:02.227Z,90.25
2022-11-09T23:23:04.708Z,90.19
2022-11-09T23:28:06.622Z,89.93
2022-11-09T23:33:11.009Z,89.83
2022-11-09T23:38:13.055Z,89.47
2022-11-09T23:43:15.275Z,88.13
2022-11-09T23:48:19.451Z,87.09
2022-11-09T23:53:21.975Z,86.59
2022-11-09T23:58:24.731Z,86.56
